| time (UTC) | temp F | wind direction | speed MPH | gust MPH | rain 1hr in | rain 24hr in | rain mn in | humidity % | barometer mb |
| 20260504185036 | 73 | 276 | 4.0 | 15.0 | 0.00 | 0.00 | 0.00 | 36 | 1011.3 |
| 20260504184015 | 72 | 271 | 5.0 | 15.0 | 0.00 | 0.00 | 0.00 | 36 | 1011.3 |
| 20260504183036 | 72 | 271 | 5.0 | 14.0 | 0.00 | 0.00 | 0.00 | 36 | 1011.5 |
| 20260504182056 | 72 | 265 | 4.0 | 13.0 | 0.00 | 0.00 | 0.00 | 36 | 1011.6 |
| 20260504181015 | 72 | 270 | 4.0 | 13.0 | 0.00 | 0.00 | 0.00 | 36 | 1011.7 |
| 20260504180056 | 71 | 254 | 3.0 | 13.0 | 0.00 | 0.00 | 0.00 | 36 | 1011.7 |
| 20260504175016 | 71 | 293 | 5.0 | 14.0 | 0.00 | 0.00 | 0.00 | 36 | 1011.8 |
| 20260504174035 | 71 | 266 | 5.0 | 14.0 | 0.00 | 0.00 | 0.00 | 36 | 1011.9 |
| 20260504173115 | 70 | 244 | 2.0 | 11.0 | 0.00 | 0.00 | 0.00 | 36 | 1011.9 |
| 20260504172055 | 71 | 242 | 3.0 | 11.0 | 0.00 | 0.00 | 0.00 | 36 | 1012.2 |
| 20260504171015 | 70 | 301 | 2.0 | 12.0 | 0.00 | 0.00 | 0.00 | 38 | 1012.3 |
| 20260504151037 | 65 | 297 | 5.0 | 12.0 | 0.00 | 0.00 | 0.00 | 40 | 1013.8 |
| 20260504141018 | 61 | 239 | 3.0 | 10.0 | 0.00 | 0.00 | 0.00 | 45 | 1014.0 |
| 20260504081037 | 37 | 0.0 | 1.0 | 0.00 | 0.00 | 0.00 | 88 | 1015.1 | |
| 20260504045016 | 39 | 17 | 1.0 | 2.0 | 0.00 | 0.00 | 0.00 | 83 | 1015.3 |
| 20260504044016 | 39 | 17 | 0.0 | 1.0 | 0.00 | 0.00 | 0.00 | 82 | 1015.3 |
| 20260504043036 | 39 | 17 | 0.0 | 2.0 | 0.00 | 0.00 | 0.00 | 82 | 1015.3 |
| 20260504042016 | 39 | 17 | 1.0 | 2.0 | 0.00 | 0.00 | 0.00 | 80 | 1015.2 |
| 20260504041016 | 40 | 23 | 0.0 | 2.0 | 0.00 | 0.00 | 0.00 | 79 | 1015.0 |
| 20260504040136 | 40 | 59 | 1.0 | 3.0 | 0.00 | 0.00 | 0.00 | 79 | 1014.8 |
| 20260504035036 | 40 | 121 | 1.0 | 3.0 | 0.00 | 0.00 | 0.00 | 78 | 1014.7 |
| 20260504034016 | 41 | 31 | 1.0 | 2.0 | 0.00 | 0.00 | 0.00 | 78 | 1014.9 |
| 20260504033036 | 41 | 0 | 1.0 | 2.0 | 0.00 | 0.00 | 0.00 | 76 | 1014.9 |
| 20260504032056 | 42 | 0 | 1.0 | 2.0 | 0.00 | 0.00 | 0.00 | 75 | 1014.8 |
| 20260504031036 | 42 | 0 | 0.0 | 2.0 | 0.00 | 0.00 | 0.00 | 74 | 1014.6 |
| 20260504030016 | 42 | 0 | 0.0 | 3.0 | 0.00 | 0.00 | 0.00 | 73 | 1014.6 |
| 20260504025056 | 43 | 354 | 1.0 | 3.0 | 0.00 | 0.00 | 0.00 | 72 | 1014.6 |
| 20260504024016 | 43 | 284 | 1.0 | 2.0 | 0.00 | 0.00 | 0.00 | 70 | 1014.6 |
| 20260504023036 | 44 | 284 | 0.0 | 2.0 | 0.00 | 0.00 | 0.00 | 69 | 1014.6 |
| 20260504022016 | 44 | 284 | 1.0 | 2.0 | 0.00 | 0.00 | 0.00 | 67 | 1014.6 |
| 20260504021036 | 45 | 281 | 1.0 | 2.0 | 0.00 | 0.00 | 0.00 | 66 | 1014.5 |
| 20260504020018 | 46 | 265 | 0.0 | 2.0 | 0.00 | 0.00 | 0.00 | 64 | 1014.5 |
| 20260504015016 | 47 | 312 | 0.0 | 2.0 | 0.00 | 0.00 | 0.00 | 62 | 1014.5 |
| 20260504014056 | 47 | 328 | 1.0 | 2.0 | 0.00 | 0.00 | 0.00 | 60 | 1014.4 |
| 20260504013016 | 48 | 328 | 1.0 | 2.0 | 0.00 | 0.00 | 0.00 | 57 | 1014.4 |
| 20260504012016 | 49 | 328 | 0.0 | 2.0 | 0.00 | 0.00 | 0.00 | 56 | 1014.3 |
| 20260504011036 | 50 | 332 | 0.0 | 2.0 | 0.00 | 0.00 | 0.00 | 53 | 1014.2 |
| 20260504010016 | 51 | 332 | 1.0 | 2.0 | 0.00 | 0.00 | 0.00 | 51 | 1014.2 |
| 20260504005016 | 53 | 329 | 0.0 | 2.0 | 0.00 | 0.00 | 0.00 | 47 | 1014.2 |
| 20260504004056 | 54 | 329 | 0.0 | 1.0 | 0.00 | 0.00 | 0.00 | 45 | 1014.1 |
| 20260504003016 | 55 | 329 | 0.0 | 1.0 | 0.00 | 0.00 | 0.00 | 43 | 1014.0 |
| 20260504002016 | 56 | 329 | 0.0 | 1.0 | 0.00 | 0.00 | 0.00 | 41 | 1013.9 |
| 20260504001036 | 57 | 329 | 0.0 | 1.0 | 0.00 | 0.00 | 0.00 | 39 | 1013.8 |
| 20260504000016 | 58 | 329 | 0.0 | 2.0 | 0.00 | 0.00 | 0.00 | 37 | 1013.7 |
| 20260503235016 | 58 | 330 | 1.0 | 4.0 | 0.00 | 0.00 | 0.00 | 36 | 1013.6 |
| 20260503234036 | 59 | 319 | 2.0 | 4.0 | 0.00 | 0.00 | 0.00 | 34 | 1013.5 |
| 20260503233036 | 59 | 346 | 2.0 | 9.0 | 0.00 | 0.00 | 0.00 | 35 | 1013.3 |
| 20260503232056 | 60 | 323 | 3.0 | 9.0 | 0.00 | 0.00 | 0.00 | 34 | 1013.2 |
| 20260503231116 | 60 | 349 | 2.0 | 8.0 | 0.00 | 0.00 | 0.00 | 34 | 1013.2 |
| 20260503230016 | 60 | 348 | 2.0 | 11.0 | 0.00 | 0.00 | 0.00 | 34 | 1013.2 |
| 20260503225016 | 60 | 340 | 4.0 | 11.0 | 0.00 | 0.00 | 0.00 | 33 | 1013.3 |
| 20260503224016 | 60 | 345 | 5.0 | 18.0 | 0.00 | 0.00 | 0.00 | 33 | 1013.3 |
| 20260503223056 | 60 | 343 | 6.0 | 18.0 | 0.00 | 0.00 | 0.00 | 33 | 1013.3 |
| 20260503222016 | 60 | 348 | 6.0 | 14.0 | 0.00 | 0.00 | 0.00 | 33 | 1013.4 |
| 20260503221036 | 60 | 344 | 5.0 | 13.0 | 0.00 | 0.00 | 0.00 | 33 | 1013.4 |
| 20260503220056 | 60 | 323 | 6.0 | 15.0 | 0.00 | 0.00 | 0.00 | 33 | 1013.5 |
| 20260503215056 | 61 | 345 | 6.0 | 15.0 | 0.00 | 0.00 | 0.00 | 32 | 1013.5 |
| 20260503214056 | 60 | 341 | 5.0 | 13.0 | 0.00 | 0.00 | 0.00 | 33 | 1013.4 |
| 20260503213016 | 60 | 343 | 6.0 | 15.0 | 0.00 | 0.00 | 0.00 | 32 | 1013.4 |
| 20260503212056 | 60 | 351 | 6.0 | 15.0 | 0.00 | 0.00 | 0.00 | 32 | 1013.3 |
| 20260503211036 | 60 | 350 | 5.0 | 13.0 | 0.00 | 0.00 | 0.00 | 33 | 1013.4 |
| 20260503210036 | 60 | 337 | 5.0 | 14.0 | 0.00 | 0.00 | 0.00 | 32 | 1013.3 |
| 20260503205016 | 60 | 346 | 5.0 | 15.0 | 0.00 | 0.00 | 0.00 | 32 | 1013.4 |
| 20260503204056 | 61 | 345 | 6.0 | 15.0 | 0.00 | 0.00 | 0.00 | 32 | 1013.5 |
| 20260503203036 | 61 | 330 | 5.0 | 12.0 | 0.00 | 0.00 | 0.00 | 32 | 1013.6 |
| 20260503202036 | 61 | 345 | 4.0 | 14.0 | 0.00 | 0.00 | 0.00 | 33 | 1013.7 |
| 20260503201036 | 61 | 334 | 6.0 | 15.0 | 0.00 | 0.00 | 0.00 | 32 | 1013.9 |
| 20260503200016 | 60 | 352 | 5.0 | 15.0 | 0.00 | 0.00 | 0.00 | 33 | 1014.0 |
| 20260503195056 | 60 | 333 | 5.0 | 15.0 | 0.00 | 0.00 | 0.00 | 34 | 1014.1 |
| 20260503194016 | 59 | 348 | 7.0 | 15.0 | 0.00 | 0.00 | 0.00 | 34 | 1014.3 |
| 20260503193016 | 58 | 336 | 6.0 | 17.0 | 0.00 | 0.00 | 0.00 | 34 | 1014.2 |
| 20260503192036 | 58 | 335 | 7.0 | 17.0 | 0.00 | 0.00 | 0.00 | 35 | 1014.4 |
| 20260503191056 | 59 | 335 | 7.0 | 16.0 | 0.00 | 0.00 | 0.00 | 34 | 1014.4 |
| 20260503190116 | 59 | 320 | 6.0 | 15.0 | 0.00 | 0.00 | 0.00 | 35 | 1014.6 |